sensor_id;sensor_type;location;lat;lon;timestamp;P1;durP1;ratioP1;P2;durP2;ratioP2
19971;SDS011;10147;16.402;102.848;2023-07-31T00:02:23;16.05;;;14.43;;
19971;SDS011;10147;16.402;102.848;2023-07-31T00:04:53;18.80;;;15.25;;
19971;SDS011;10147;16.402;102.848;2023-07-31T00:07:23;18.17;;;15.77;;
19971;SDS011;10147;16.402;102.848;2023-07-31T00:09:52;19.52;;;17.33;;
19971;SDS011;10147;16.402;102.848;2023-07-31T00:12:23;18.50;;;16.58;;
19971;SDS011;10147;16.402;102.848;2023-07-31T00:14:54;22.55;;;16.83;;
19971;SDS011;10147;16.402;102.848;2023-07-31T00:17:23;19.77;;;16.75;;
19971;SDS011;10147;16.402;102.848;2023-07-31T00:19:54;22.23;;;17.75;;
19971;SDS011;10147;16.402;102.848;2023-07-31T00:22:23;20.02;;;17.17;;
19971;SDS011;10147;16.402;102.848;2023-07-31T00:24:53;21.80;;;18.05;;
19971;SDS011;10147;16.402;102.848;2023-07-31T00:27:24;25.10;;;17.90;;
19971;SDS011;10147;16.402;102.848;2023-07-31T00:29:54;20.52;;;16.65;;
19971;SDS011;10147;16.402;102.848;2023-07-31T00:32:25;19.60;;;16.98;;
19971;SDS011;10147;16.402;102.848;2023-07-31T00:34:55;20.38;;;16.70;;
19971;SDS011;10147;16.402;102.848;2023-07-31T00:37:25;19.52;;;16.27;;
19971;SDS011;10147;16.402;102.848;2023-07-31T00:39:55;21.38;;;16.33;;
19971;SDS011;10147;16.402;102.848;2023-07-31T00:42:26;29.67;;;22.65;;
19971;SDS011;10147;16.402;102.848;2023-07-31T00:44:56;24.50;;;20.83;;
19971;SDS011;10147;16.402;102.848;2023-07-31T00:47:26;23.85;;;20.40;;
19971;SDS011;10147;16.402;102.848;2023-07-31T00:49:56;23.23;;;16.50;;
19971;SDS011;10147;16.402;102.848;2023-07-31T00:52:28;23.60;;;18.00;;
19971;SDS011;10147;16.402;102.848;2023-07-31T00:54:58;25.20;;;18.10;;
19971;SDS011;10147;16.402;102.848;2023-07-31T00:57:30;22.20;;;17.98;;
19971;SDS011;10147;16.402;102.848;2023-07-31T01:00:02;25.10;;;17.17;;
19971;SDS011;10147;16.402;102.848;2023-07-31T01:02:32;22.38;;;15.90;;
19971;SDS011;10147;16.402;102.848;2023-07-31T01:05:03;26.23;;;19.55;;
19971;SDS011;10147;16.402;102.848;2023-07-31T01:07:51;23.85;;;18.70;;
19971;SDS011;10147;16.402;102.848;2023-07-31T01:10:30;27.77;;;18.63;;
19971;SDS011;10147;16.402;102.848;2023-07-31T01:13:10;23.80;;;18.05;;
19971;SDS011;10147;16.402;102.848;2023-07-31T01:15:42;23.67;;;19.30;;
19971;SDS011;10147;16.402;102.848;2023-07-31T01:18:13;22.17;;;18.48;;
19971;SDS011;10147;16.402;102.848;2023-07-31T01:20:43;25.80;;;18.05;;
19971;SDS011;10147;16.402;102.848;2023-07-31T01:26:21;26.05;;;21.10;;
19971;SDS011;10147;16.402;102.848;2023-07-31T01:31:54;57.92;;;38.03;;
19971;SDS011;10147;16.402;102.848;2023-07-31T01:34:25;34.20;;;23.90;;
19971;SDS011;10147;16.402;102.848;2023-07-31T01:36:58;116.72;;;85.38;;
19971;SDS011;10147;16.402;102.848;2023-07-31T01:39:28;152.32;;;114.68;;
19971;SDS011;10147;16.402;102.848;2023-07-31T01:41:57;34.13;;;25.42;;
19971;SDS011;10147;16.402;102.848;2023-07-31T01:44:27;69.13;;;50.05;;
19971;SDS011;10147;16.402;102.848;2023-07-31T01:46:57;113.28;;;84.30;;
19971;SDS011;10147;16.402;102.848;2023-07-31T01:49:32;50.63;;;33.22;;
19971;SDS011;10147;16.402;102.848;2023-07-31T01:52:02;35.97;;;29.52;;
19971;SDS011;10147;16.402;102.848;2023-07-31T01:54:33;40.90;;;32.22;;
19971;SDS011;10147;16.402;102.848;2023-07-31T01:57:05;42.97;;;31.75;;
19971;SDS011;10147;16.402;102.848;2023-07-31T01:59:36;37.80;;;28.50;;
19971;SDS011;10147;16.402;102.848;2023-07-31T02:02:05;43.42;;;32.20;;
19971;SDS011;10147;16.402;102.848;2023-07-31T02:04:35;37.45;;;31.52;;
19971;SDS011;10147;16.402;102.848;2023-07-31T02:07:07;29.10;;;19.95;;
19971;SDS011;10147;16.402;102.848;2023-07-31T02:09:37;25.92;;;19.45;;
19971;SDS011;10147;16.402;102.848;2023-07-31T02:12:07;31.75;;;19.08;;
19971;SDS011;10147;16.402;102.848;2023-07-31T02:14:38;29.27;;;20.27;;
19971;SDS011;10147;16.402;102.848;2023-07-31T02:17:07;32.30;;;20.33;;
19971;SDS011;10147;16.402;102.848;2023-07-31T02:19:37;26.77;;;19.40;;
19971;SDS011;10147;16.402;102.848;2023-07-31T02:22:07;40.50;;;25.90;;
19971;SDS011;10147;16.402;102.848;2023-07-31T02:24:37;37.40;;;25.08;;
19971;SDS011;10147;16.402;102.848;2023-07-31T02:27:07;22.73;;;16.05;;
19971;SDS011;10147;16.402;102.848;2023-07-31T02:29:37;36.03;;;22.63;;
19971;SDS011;10147;16.402;102.848;2023-07-31T02:32:08;41.90;;;29.13;;
19971;SDS011;10147;16.402;102.848;2023-07-31T02:34:41;32.55;;;20.95;;
19971;SDS011;10147;16.402;102.848;2023-07-31T02:37:11;20.60;;;13.93;;
19971;SDS011;10147;16.402;102.848;2023-07-31T02:39:41;31.52;;;20.95;;
19971;SDS011;10147;16.402;102.848;2023-07-31T02:42:12;24.35;;;16.00;;
19971;SDS011;10147;16.402;102.848;2023-07-31T02:44:44;18.85;;;13.38;;
19971;SDS011;10147;16.402;102.848;2023-07-31T02:47:15;20.92;;;12.93;;
19971;SDS011;10147;16.402;102.848;2023-07-31T02:49:45;23.17;;;13.38;;
19971;SDS011;10147;16.402;102.848;2023-07-31T02:52:16;20.73;;;13.05;;
19971;SDS011;10147;16.402;102.848;2023-07-31T02:54:46;21.23;;;13.80;;
19971;SDS011;10147;16.402;102.848;2023-07-31T02:57:16;17.98;;;13.50;;
19971;SDS011;10147;16.402;102.848;2023-07-31T02:59:47;18.38;;;13.77;;
19971;SDS011;10147;16.402;102.848;2023-07-31T03:02:17;27.13;;;13.93;;
19971;SDS011;10147;16.402;102.848;2023-07-31T03:04:48;23.17;;;13.75;;
19971;SDS011;10147;16.402;102.848;2023-07-31T03:07:18;19.83;;;13.20;;
19971;SDS011;10147;16.402;102.848;2023-07-31T03:09:49;20.63;;;14.93;;
19971;SDS011;10147;16.402;102.848;2023-07-31T03:12:20;23.50;;;13.75;;
19971;SDS011;10147;16.402;102.848;2023-07-31T03:14:50;16.70;;;12.48;;
19971;SDS011;10147;16.402;102.848;2023-07-31T03:17:20;15.55;;;13.32;;
19971;SDS011;10147;16.402;102.848;2023-07-31T03:19:50;18.00;;;14.35;;
19971;SDS011;10147;16.402;102.848;2023-07-31T03:22:21;20.73;;;13.50;;
19971;SDS011;10147;16.402;102.848;2023-07-31T03:24:51;22.35;;;13.60;;
19971;SDS011;10147;16.402;102.848;2023-07-31T03:27:22;16.35;;;12.82;;
19971;SDS011;10147;16.402;102.848;2023-07-31T03:29:53;18.45;;;14.07;;
19971;SDS011;10147;16.402;102.848;2023-07-31T03:32:23;18.40;;;12.88;;
19971;SDS011;10147;16.402;102.848;2023-07-31T03:34:53;17.98;;;12.40;;
19971;SDS011;10147;16.402;102.848;2023-07-31T03:37:24;22.35;;;12.70;;
19971;SDS011;10147;16.402;102.848;2023-07-31T03:39:55;19.67;;;12.35;;
19971;SDS011;10147;16.402;102.848;2023-07-31T03:42:26;15.45;;;11.88;;
19971;SDS011;10147;16.402;102.848;2023-07-31T03:44:56;20.13;;;10.82;;
19971;SDS011;10147;16.402;102.848;2023-07-31T03:47:26;16.17;;;12.43;;
19971;SDS011;10147;16.402;102.848;2023-07-31T03:49:57;18.13;;;12.30;;
19971;SDS011;10147;16.402;102.848;2023-07-31T03:52:27;16.35;;;12.15;;
19971;SDS011;10147;16.402;102.848;2023-07-31T03:54:58;15.93;;;11.68;;
19971;SDS011;10147;16.402;102.848;2023-07-31T03:57:28;16.73;;;12.05;;
19971;SDS011;10147;16.402;102.848;2023-07-31T04:00:01;16.55;;;11.85;;
19971;SDS011;10147;16.402;102.848;2023-07-31T04:02:37;18.98;;;13.50;;
19971;SDS011;10147;16.402;102.848;2023-07-31T04:05:08;18.05;;;12.00;;
19971;SDS011;10147;16.402;102.848;2023-07-31T04:07:41;17.23;;;10.13;;
19971;SDS011;10147;16.402;102.848;2023-07-31T04:10:13;15.48;;;10.82;;
19971;SDS011;10147;16.402;102.848;2023-07-31T04:12:44;16.42;;;11.73;;
19971;SDS011;10147;16.402;102.848;2023-07-31T04:15:14;15.05;;;9.55;;
19971;SDS011;10147;16.402;102.848;2023-07-31T04:17:45;14.75;;;10.48;;
19971;SDS011;10147;16.402;102.848;2023-07-31T04:20:16;14.80;;;10.23;;
19971;SDS011;10147;16.402;102.848;2023-07-31T04:22:46;13.18;;;10.57;;
19971;SDS011;10147;16.402;102.848;2023-07-31T04:25:17;19.23;;;10.68;;
19971;SDS011;10147;16.402;102.848;2023-07-31T04:27:47;17.67;;;10.65;;
19971;SDS011;10147;16.402;102.848;2023-07-31T04:30:17;16.85;;;10.85;;
19971;SDS011;10147;16.402;102.848;2023-07-31T04:32:48;14.43;;;10.23;;
19971;SDS011;10147;16.402;102.848;2023-07-31T04:35:18;19.30;;;11.23;;
19971;SDS011;10147;16.402;102.848;2023-07-31T04:37:49;15.95;;;8.75;;
19971;SDS011;10147;16.402;102.848;2023-07-31T04:40:20;16.88;;;8.70;;
19971;SDS011;10147;16.402;102.848;2023-07-31T04:42:51;15.90;;;10.68;;
19971;SDS011;10147;16.402;102.848;2023-07-31T04:45:21;17.15;;;11.02;;
19971;SDS011;10147;16.402;102.848;2023-07-31T04:47:53;13.93;;;10.55;;
19971;SDS011;10147;16.402;102.848;2023-07-31T04:50:24;20.30;;;12.63;;
19971;SDS011;10147;16.402;102.848;2023-07-31T04:52:54;17.52;;;10.20;;
19971;SDS011;10147;16.402;102.848;2023-07-31T04:55:26;17.65;;;10.27;;
19971;SDS011;10147;16.402;102.848;2023-07-31T04:57:59;14.00;;;9.95;;
19971;SDS011;10147;16.402;102.848;2023-07-31T05:00:29;15.43;;;10.07;;
19971;SDS011;10147;16.402;102.848;2023-07-31T05:03:01;17.30;;;9.82;;
19971;SDS011;10147;16.402;102.848;2023-07-31T05:05:32;16.17;;;10.48;;
19971;SDS011;10147;16.402;102.848;2023-07-31T05:08:02;13.70;;;10.85;;
19971;SDS011;10147;16.402;102.848;2023-07-31T05:10:34;19.17;;;10.30;;
19971;SDS011;10147;16.402;102.848;2023-07-31T05:13:05;17.20;;;10.55;;
19971;SDS011;10147;16.402;102.848;2023-07-31T05:15:36;14.80;;;10.20;;
19971;SDS011;10147;16.402;102.848;2023-07-31T05:18:08;12.18;;;9.77;;
19971;SDS011;10147;16.402;102.848;2023-07-31T05:20:38;16.63;;;9.88;;
19971;SDS011;10147;16.402;102.848;2023-07-31T05:23:10;13.07;;;9.75;;
19971;SDS011;10147;16.402;102.848;2023-07-31T05:25:40;16.52;;;10.07;;
19971;SDS011;10147;16.402;102.848;2023-07-31T05:28:11;16.75;;;11.23;;
19971;SDS011;10147;16.402;102.848;2023-07-31T05:30:44;12.20;;;9.75;;
19971;SDS011;10147;16.402;102.848;2023-07-31T05:33:14;13.70;;;10.07;;
19971;SDS011;10147;16.402;102.848;2023-07-31T05:35:44;14.88;;;10.55;;
19971;SDS011;10147;16.402;102.848;2023-07-31T05:38:16;16.05;;;10.57;;
19971;SDS011;10147;16.402;102.848;2023-07-31T05:40:46;16.58;;;10.38;;
19971;SDS011;10147;16.402;102.848;2023-07-31T05:43:17;14.68;;;10.98;;
19971;SDS011;10147;16.402;102.848;2023-07-31T05:45:46;15.73;;;9.95;;
19971;SDS011;10147;16.402;102.848;2023-07-31T05:48:17;17.50;;;11.00;;
19971;SDS011;10147;16.402;102.848;2023-07-31T05:50:47;17.88;;;11.60;;
19971;SDS011;10147;16.402;102.848;2023-07-31T05:53:16;15.60;;;11.05;;
19971;SDS011;10147;16.402;102.848;2023-07-31T05:55:47;13.88;;;10.88;;
19971;SDS011;10147;16.402;102.848;2023-07-31T05:58:16;15.25;;;10.90;;
19971;SDS011;10147;16.402;102.848;2023-07-31T06:00:46;12.93;;;10.15;;
19971;SDS011;10147;16.402;102.848;2023-07-31T06:03:17;14.73;;;10.82;;
19971;SDS011;10147;16.402;102.848;2023-07-31T06:05:47;19.15;;;10.20;;
19971;SDS011;10147;16.402;102.848;2023-07-31T06:08:17;21.20;;;19.00;;
19971;SDS011;10147;16.402;102.848;2023-07-31T06:10:48;30.33;;;27.42;;
19971;SDS011;10147;16.402;102.848;2023-07-31T06:13:18;32.42;;;29.40;;
19971;SDS011;10147;16.402;102.848;2023-07-31T06:15:48;15.32;;;11.00;;
19971;SDS011;10147;16.402;102.848;2023-07-31T06:18:18;14.38;;;10.85;;
19971;SDS011;10147;16.402;102.848;2023-07-31T06:20:48;15.93;;;11.13;;
19971;SDS011;10147;16.402;102.848;2023-07-31T06:23:22;15.10;;;11.65;;
19971;SDS011;10147;16.402;102.848;2023-07-31T06:25:52;14.13;;;10.68;;
19971;SDS011;10147;16.402;102.848;2023-07-31T06:28:26;18.70;;;10.98;;
19971;SDS011;10147;16.402;102.848;2023-07-31T06:31:00;16.90;;;12.07;;
19971;SDS011;10147;16.402;102.848;2023-07-31T06:33:31;16.80;;;12.40;;
19971;SDS011;10147;16.402;102.848;2023-07-31T06:36:01;18.02;;;13.35;;
19971;SDS011;10147;16.402;102.848;2023-07-31T06:38:31;15.70;;;12.80;;
19971;SDS011;10147;16.402;102.848;2023-07-31T06:41:01;17.65;;;12.98;;
19971;SDS011;10147;16.402;102.848;2023-07-31T06:43:32;20.95;;;15.18;;
19971;SDS011;10147;16.402;102.848;2023-07-31T06:46:06;16.63;;;12.45;;
19971;SDS011;10147;16.402;102.848;2023-07-31T06:48:36;16.48;;;12.52;;
19971;SDS011;10147;16.402;102.848;2023-07-31T06:51:06;17.17;;;12.35;;
19971;SDS011;10147;16.402;102.848;2023-07-31T06:53:37;14.70;;;11.98;;
19971;SDS011;10147;16.402;102.848;2023-07-31T06:56:07;17.13;;;15.35;;
19971;SDS011;10147;16.402;102.848;2023-07-31T06:58:37;17.42;;;14.15;;
19971;SDS011;10147;16.402;102.848;2023-07-31T07:01:07;19.42;;;14.80;;
19971;SDS011;10147;16.402;102.848;2023-07-31T07:03:37;14.85;;;12.95;;
19971;SDS011;10147;16.402;102.848;2023-07-31T07:06:07;16.85;;;13.77;;
19971;SDS011;10147;16.402;102.848;2023-07-31T07:08:37;13.95;;;12.38;;
19971;SDS011;10147;16.402;102.848;2023-07-31T07:11:07;17.92;;;13.70;;
19971;SDS011;10147;16.402;102.848;2023-07-31T07:13:37;18.65;;;12.95;;
19971;SDS011;10147;16.402;102.848;2023-07-31T07:16:08;19.42;;;12.88;;
19971;SDS011;10147;16.402;102.848;2023-07-31T07:18:41;16.58;;;12.88;;
19971;SDS011;10147;16.402;102.848;2023-07-31T07:21:29;17.95;;;13.30;;
19971;SDS011;10147;16.402;102.848;2023-07-31T07:23:58;17.27;;;15.38;;
19971;SDS011;10147;16.402;102.848;2023-07-31T07:26:29;16.02;;;12.82;;
19971;SDS011;10147;16.402;102.848;2023-07-31T07:29:01;14.13;;;11.90;;
19971;SDS011;10147;16.402;102.848;2023-07-31T07:31:31;16.15;;;11.50;;
19971;SDS011;10147;16.402;102.848;2023-07-31T07:34:01;11.82;;;9.02;;
19971;SDS011;10147;16.402;102.848;2023-07-31T07:36:32;11.43;;;8.90;;
19971;SDS011;10147;16.402;102.848;2023-07-31T07:39:03;12.15;;;9.68;;
19971;SDS011;10147;16.402;102.848;2023-07-31T07:41:34;11.15;;;9.95;;
19971;SDS011;10147;16.402;102.848;2023-07-31T07:44:05;13.77;;;12.68;;
19971;SDS011;10147;16.402;102.848;2023-07-31T07:46:35;9.45;;;8.52;;
19971;SDS011;10147;16.402;102.848;2023-07-31T07:49:06;8.90;;;8.00;;
19971;SDS011;10147;16.402;102.848;2023-07-31T07:51:36;12.05;;;9.00;;
19971;SDS011;10147;16.402;102.848;2023-07-31T07:54:07;11.27;;;9.07;;
19971;SDS011;10147;16.402;102.848;2023-07-31T07:56:38;9.80;;;8.80;;
19971;SDS011;10147;16.402;102.848;2023-07-31T07:59:08;10.27;;;9.38;;
19971;SDS011;10147;16.402;102.848;2023-07-31T08:01:39;10.48;;;9.40;;
19971;SDS011;10147;16.402;102.848;2023-07-31T08:04:09;10.45;;;9.32;;
19971;SDS011;10147;16.402;102.848;2023-07-31T08:06:39;10.30;;;9.30;;
19971;SDS011;10147;16.402;102.848;2023-07-31T08:09:10;9.18;;;8.38;;
19971;SDS011;10147;16.402;102.848;2023-07-31T08:11:42;11.65;;;8.30;;
19971;SDS011;10147;16.402;102.848;2023-07-31T08:14:12;8.38;;;7.57;;
19971;SDS011;10147;16.402;102.848;2023-07-31T08:16:43;12.68;;;8.98;;
19971;SDS011;10147;16.402;102.848;2023-07-31T08:19:13;11.43;;;8.70;;
19971;SDS011;10147;16.402;102.848;2023-07-31T08:21:43;9.15;;;8.30;;
19971;SDS011;10147;16.402;102.848;2023-07-31T08:24:14;13.32;;;11.07;;
19971;SDS011;10147;16.402;102.848;2023-07-31T08:26:43;19.33;;;9.20;;
19971;SDS011;10147;16.402;102.848;2023-07-31T08:29:13;12.57;;;8.60;;
19971;SDS011;10147;16.402;102.848;2023-07-31T08:31:44;10.18;;;7.90;;
19971;SDS011;10147;16.402;102.848;2023-07-31T08:34:14;11.02;;;7.47;;
19971;SDS011;10147;16.402;102.848;2023-07-31T08:36:44;8.68;;;7.97;;
19971;SDS011;10147;16.402;102.848;2023-07-31T08:39:14;10.57;;;7.97;;
19971;SDS011;10147;16.402;102.848;2023-07-31T08:41:44;8.82;;;7.80;;
19971;SDS011;10147;16.402;102.848;2023-07-31T08:44:15;8.75;;;7.85;;
19971;SDS011;10147;16.402;102.848;2023-07-31T08:46:46;8.45;;;7.72;;
19971;SDS011;10147;16.402;102.848;2023-07-31T08:49:17;8.63;;;7.72;;
19971;SDS011;10147;16.402;102.848;2023-07-31T08:51:50;12.88;;;11.35;;
19971;SDS011;10147;16.402;102.848;2023-07-31T08:54:23;12.00;;;10.93;;
19971;SDS011;10147;16.402;102.848;2023-07-31T08:56:53;10.57;;;9.20;;
19971;SDS011;10147;16.402;102.848;2023-07-31T08:59:23;9.10;;;8.27;;
19971;SDS011;10147;16.402;102.848;2023-07-31T09:01:55;10.13;;;8.02;;
19971;SDS011;10147;16.402;102.848;2023-07-31T09:04:27;9.25;;;8.20;;
19971;SDS011;10147;16.402;102.848;2023-07-31T09:07:00;9.73;;;8.70;;
19971;SDS011;10147;16.402;102.848;2023-07-31T09:09:33;8.90;;;8.02;;
19971;SDS011;10147;16.402;102.848;2023-07-31T09:12:02;9.45;;;8.55;;
19971;SDS011;10147;16.402;102.848;2023-07-31T09:14:33;8.70;;;7.80;;
19971;SDS011;10147;16.402;102.848;2023-07-31T09:17:04;8.70;;;7.63;;
19971;SDS011;10147;16.402;102.848;2023-07-31T09:19:35;7.10;;;6.50;;
19971;SDS011;10147;16.402;102.848;2023-07-31T09:22:08;8.48;;;6.20;;
19971;SDS011;10147;16.402;102.848;2023-07-31T09:24:38;9.13;;;6.68;;
19971;SDS011;10147;16.402;102.848;2023-07-31T09:27:08;11.90;;;10.68;;
19971;SDS011;10147;16.402;102.848;2023-07-31T09:29:38;8.27;;;7.50;;
19971;SDS011;10147;16.402;102.848;2023-07-31T09:32:15;7.70;;;6.70;;
19971;SDS011;10147;16.402;102.848;2023-07-31T09:34:46;6.80;;;6.20;;
19971;SDS011;10147;16.402;102.848;2023-07-31T09:37:15;17.00;;;11.70;;
19971;SDS011;10147;16.402;102.848;2023-07-31T09:39:47;9.95;;;7.60;;
19971;SDS011;10147;16.402;102.848;2023-07-31T09:42:26;11.63;;;7.40;;
19971;SDS011;10147;16.402;102.848;2023-07-31T09:45:06;12.45;;;7.70;;
19971;SDS011;10147;16.402;102.848;2023-07-31T09:47:38;7.47;;;6.72;;
19971;SDS011;10147;16.402;102.848;2023-07-31T09:50:08;11.25;;;7.97;;
19971;SDS011;10147;16.402;102.848;2023-07-31T09:52:38;25.30;;;14.18;;
19971;SDS011;10147;16.402;102.848;2023-07-31T09:55:09;56.30;;;26.92;;
19971;SDS011;10147;16.402;102.848;2023-07-31T09:57:40;14.75;;;8.48;;
19971;SDS011;10147;16.402;102.848;2023-07-31T10:00:15;23.02;;;13.02;;
19971;SDS011;10147;16.402;102.848;2023-07-31T10:02:47;23.05;;;12.63;;
19971;SDS011;10147;16.402;102.848;2023-07-31T10:05:18;8.05;;;7.25;;
19971;SDS011;10147;16.402;102.848;2023-07-31T10:07:52;9.63;;;8.15;;
19971;SDS011;10147;16.402;102.848;2023-07-31T10:10:24;12.48;;;8.30;;
19971;SDS011;10147;16.402;102.848;2023-07-31T10:12:56;15.20;;;8.73;;
19971;SDS011;10147;16.402;102.848;2023-07-31T10:15:27;10.68;;;9.15;;
19971;SDS011;10147;16.402;102.848;2023-07-31T10:18:01;12.45;;;8.70;;
19971;SDS011;10147;16.402;102.848;2023-07-31T10:20:34;12.82;;;9.48;;
19971;SDS011;10147;16.402;102.848;2023-07-31T10:23:05;14.07;;;9.13;;
19971;SDS011;10147;16.402;102.848;2023-07-31T10:25:36;13.38;;;9.40;;
19971;SDS011;10147;16.402;102.848;2023-07-31T10:28:08;11.00;;;9.10;;
19971;SDS011;10147;16.402;102.848;2023-07-31T10:30:39;11.80;;;9.40;;
19971;SDS011;10147;16.402;102.848;2023-07-31T10:33:10;12.30;;;8.27;;
19971;SDS011;10147;16.402;102.848;2023-07-31T10:35:40;12.18;;;8.52;;
19971;SDS011;10147;16.402;102.848;2023-07-31T10:38:10;11.07;;;8.88;;
19971;SDS011;10147;16.402;102.848;2023-07-31T10:40:42;11.45;;;9.15;;
19971;SDS011;10147;16.402;102.848;2023-07-31T10:43:23;10.88;;;8.68;;
19971;SDS011;10147;16.402;102.848;2023-07-31T10:45:56;11.65;;;8.55;;
19971;SDS011;10147;16.402;102.848;2023-07-31T10:48:26;9.48;;;7.95;;
19971;SDS011;10147;16.402;102.848;2023-07-31T10:51:06;10.73;;;8.75;;
19971;SDS011;10147;16.402;102.848;2023-07-31T10:53:41;10.95;;;8.68;;
19971;SDS011;10147;16.402;102.848;2023-07-31T10:56:12;12.93;;;8.80;;
19971;SDS011;10147;16.402;102.848;2023-07-31T10:58:44;13.90;;;9.30;;
19971;SDS011;10147;16.402;102.848;2023-07-31T11:01:17;13.07;;;9.27;;
19971;SDS011;10147;16.402;102.848;2023-07-31T11:03:48;11.68;;;9.32;;
19971;SDS011;10147;16.402;102.848;2023-07-31T11:06:29;13.60;;;9.93;;
19971;SDS011;10147;16.402;102.848;2023-07-31T11:08:59;11.00;;;9.82;;
19971;SDS011;10147;16.402;102.848;2023-07-31T11:11:30;15.18;;;12.02;;
19971;SDS011;10147;16.402;102.848;2023-07-31T11:14:04;15.88;;;12.20;;
19971;SDS011;10147;16.402;102.848;2023-07-31T11:16:35;20.25;;;15.50;;
19971;SDS011;10147;16.402;102.848;2023-07-31T11:19:06;14.75;;;13.23;;
19971;SDS011;10147;16.402;102.848;2023-07-31T11:21:40;10.65;;;9.32;;
19971;SDS011;10147;16.402;102.848;2023-07-31T11:24:12;13.90;;;10.60;;
19971;SDS011;10147;16.402;102.848;2023-07-31T11:26:51;12.40;;;10.43;;
19971;SDS011;10147;16.402;102.848;2023-07-31T11:29:25;12.82;;;10.93;;
19971;SDS011;10147;16.402;102.848;2023-07-31T11:31:58;20.90;;;18.95;;
19971;SDS011;10147;16.402;102.848;2023-07-31T11:34:28;13.73;;;11.07;;
19971;SDS011;10147;16.402;102.848;2023-07-31T11:36:58;14.93;;;10.57;;
19971;SDS011;10147;16.402;102.848;2023-07-31T11:39:28;13.27;;;11.32;;
19971;SDS011;10147;16.402;102.848;2023-07-31T11:41:59;16.35;;;12.95;;
19971;SDS011;10147;16.402;102.848;2023-07-31T11:44:37;19.05;;;13.95;;
19971;SDS011;10147;16.402;102.848;2023-07-31T11:47:10;33.20;;;24.13;;
19971;SDS011;10147;16.402;102.848;2023-07-31T11:49:41;26.75;;;20.92;;
19971;SDS011;10147;16.402;102.848;2023-07-31T11:52:13;20.48;;;16.70;;
19971;SDS011;10147;16.402;102.848;2023-07-31T11:54:43;21.55;;;16.92;;
19971;SDS011;10147;16.402;102.848;2023-07-31T11:57:13;18.50;;;16.50;;
19971;SDS011;10147;16.402;102.848;2023-07-31T11:59:43;24.60;;;17.60;;
19971;SDS011;10147;16.402;102.848;2023-07-31T12:02:14;21.00;;;17.45;;
19971;SDS011;10147;16.402;102.848;2023-07-31T12:04:46;18.85;;;14.90;;
19971;SDS011;10147;16.402;102.848;2023-07-31T12:07:17;16.60;;;14.75;;
19971;SDS011;10147;16.402;102.848;2023-07-31T12:09:51;16.77;;;13.27;;
19971;SDS011;10147;16.402;102.848;2023-07-31T12:12:22;16.08;;;14.00;;
19971;SDS011;10147;16.402;102.848;2023-07-31T12:14:54;17.33;;;13.15;;
19971;SDS011;10147;16.402;102.848;2023-07-31T12:17:24;15.52;;;12.95;;
19971;SDS011;10147;16.402;102.848;2023-07-31T12:19:55;16.88;;;13.05;;
19971;SDS011;10147;16.402;102.848;2023-07-31T12:22:28;20.30;;;13.07;;
19971;SDS011;10147;16.402;102.848;2023-07-31T12:24:58;17.08;;;12.05;;
19971;SDS011;10147;16.402;102.848;2023-07-31T12:27:32;16.30;;;12.63;;
19971;SDS011;10147;16.402;102.848;2023-07-31T12:30:03;15.90;;;12.75;;
19971;SDS011;10147;16.402;102.848;2023-07-31T12:32:35;16.23;;;12.73;;
19971;SDS011;10147;16.402;102.848;2023-07-31T12:35:06;15.50;;;12.57;;
19971;SDS011;10147;16.402;102.848;2023-07-31T12:37:37;17.95;;;12.75;;
19971;SDS011;10147;16.402;102.848;2023-07-31T12:40:08;18.13;;;13.18;;
19971;SDS011;10147;16.402;102.848;2023-07-31T12:42:40;16.95;;;12.45;;
19971;SDS011;10147;16.402;102.848;2023-07-31T12:45:10;17.50;;;14.00;;
19971;SDS011;10147;16.402;102.848;2023-07-31T12:47:40;17.25;;;14.05;;
19971;SDS011;10147;16.402;102.848;2023-07-31T12:50:11;15.68;;;13.20;;
19971;SDS011;10147;16.402;102.848;2023-07-31T12:52:41;16.75;;;13.50;;
19971;SDS011;10147;16.402;102.848;2023-07-31T12:55:11;15.18;;;12.40;;
19971;SDS011;10147;16.402;102.848;2023-07-31T12:57:41;16.17;;;14.00;;
19971;SDS011;10147;16.402;102.848;2023-07-31T13:00:11;20.83;;;14.20;;
19971;SDS011;10147;16.402;102.848;2023-07-31T13:02:42;16.98;;;13.70;;
19971;SDS011;10147;16.402;102.848;2023-07-31T13:05:13;18.67;;;14.43;;
19971;SDS011;10147;16.402;102.848;2023-07-31T13:07:43;20.85;;;16.23;;
19971;SDS011;10147;16.402;102.848;2023-07-31T13:10:13;19.92;;;15.07;;
19971;SDS011;10147;16.402;102.848;2023-07-31T13:12:43;23.45;;;16.73;;
19971;SDS011;10147;16.402;102.848;2023-07-31T13:15:13;22.65;;;15.48;;
19971;SDS011;10147;16.402;102.848;2023-07-31T13:17:44;21.77;;;16.05;;
19971;SDS011;10147;16.402;102.848;2023-07-31T13:20:15;26.33;;;19.50;;
19971;SDS011;10147;16.402;102.848;2023-07-31T13:22:45;27.55;;;17.95;;
19971;SDS011;10147;16.402;102.848;2023-07-31T13:25:16;30.42;;;19.38;;
19971;SDS011;10147;16.402;102.848;2023-07-31T13:27:46;27.27;;;20.08;;
19971;SDS011;10147;16.402;102.848;2023-07-31T13:30:16;25.58;;;20.85;;
19971;SDS011;10147;16.402;102.848;2023-07-31T13:32:46;28.02;;;20.80;;
19971;SDS011;10147;16.402;102.848;2023-07-31T13:35:17;23.95;;;19.90;;
19971;SDS011;10147;16.402;102.848;2023-07-31T13:37:47;24.50;;;20.88;;
19971;SDS011;10147;16.402;102.848;2023-07-31T13:40:16;28.25;;;21.45;;
19971;SDS011;10147;16.402;102.848;2023-07-31T13:42:47;38.33;;;27.92;;
19971;SDS011;10147;16.402;102.848;2023-07-31T13:45:17;30.77;;;25.08;;
19971;SDS011;10147;16.402;102.848;2023-07-31T13:47:46;29.63;;;24.02;;
19971;SDS011;10147;16.402;102.848;2023-07-31T13:50:16;28.13;;;23.80;;
19971;SDS011;10147;16.402;102.848;2023-07-31T13:52:50;31.50;;;23.42;;
19971;SDS011;10147;16.402;102.848;2023-07-31T13:55:20;33.33;;;25.90;;
19971;SDS011;10147;16.402;102.848;2023-07-31T13:57:50;38.10;;;25.48;;
19971;SDS011;10147;16.402;102.848;2023-07-31T14:00:22;39.08;;;24.20;;
19971;SDS011;10147;16.402;102.848;2023-07-31T14:02:51;36.38;;;26.60;;
19971;SDS011;10147;16.402;102.848;2023-07-31T14:05:24;29.42;;;22.48;;
19971;SDS011;10147;16.402;102.848;2023-07-31T14:07:54;35.28;;;25.13;;
19971;SDS011;10147;16.402;102.848;2023-07-31T14:10:24;29.20;;;22.85;;
19971;SDS011;10147;16.402;102.848;2023-07-31T14:12:54;30.83;;;22.05;;
19971;SDS011;10147;16.402;102.848;2023-07-31T14:15:24;33.47;;;28.27;;
19971;SDS011;10147;16.402;102.848;2023-07-31T14:17:54;30.77;;;23.30;;
19971;SDS011;10147;16.402;102.848;2023-07-31T14:20:28;26.50;;;23.00;;
19971;SDS011;10147;16.402;102.848;2023-07-31T14:23:00;25.42;;;22.83;;
19971;SDS011;10147;16.402;102.848;2023-07-31T14:25:31;35.65;;;32.30;;
19971;SDS011;10147;16.402;102.848;2023-07-31T14:28:01;27.40;;;22.88;;
19971;SDS011;10147;16.402;102.848;2023-07-31T14:30:32;30.77;;;24.23;;